sensor_id;sensor_type;location;lat;lon;timestamp;P1;durP1;ratioP1;P2;durP2;ratioP2
77866;SDS011;67271;59.120;37.970;2023-04-26T00:03:12;11.27;;;3.75;;
77866;SDS011;67271;59.120;37.970;2023-04-26T00:05:39;5.38;;;3.90;;
77866;SDS011;67271;59.120;37.970;2023-04-26T00:08:05;6.47;;;4.57;;
77866;SDS011;67271;59.120;37.970;2023-04-26T00:10:31;7.15;;;3.78;;
77866;SDS011;67271;59.120;37.970;2023-04-26T00:12:57;7.68;;;4.53;;
77866;SDS011;67271;59.120;37.970;2023-04-26T00:15:23;5.85;;;3.88;;
77866;SDS011;67271;59.120;37.970;2023-04-26T00:17:48;6.50;;;3.88;;
77866;SDS011;67271;59.120;37.970;2023-04-26T00:20:15;12.52;;;4.57;;
77866;SDS011;67271;59.120;37.970;2023-04-26T00:22:41;6.93;;;4.10;;
77866;SDS011;67271;59.120;37.970;2023-04-26T00:25:07;6.75;;;4.00;;
77866;SDS011;67271;59.120;37.970;2023-04-26T00:27:33;8.02;;;3.95;;
77866;SDS011;67271;59.120;37.970;2023-04-26T00:29:59;6.13;;;4.40;;
77866;SDS011;67271;59.120;37.970;2023-04-26T00:32:25;8.07;;;4.55;;
77866;SDS011;67271;59.120;37.970;2023-04-26T00:34:51;7.15;;;3.83;;
77866;SDS011;67271;59.120;37.970;2023-04-26T00:37:17;12.02;;;4.93;;
77866;SDS011;67271;59.120;37.970;2023-04-26T00:39:43;16.58;;;4.82;;
77866;SDS011;67271;59.120;37.970;2023-04-26T00:42:09;17.10;;;4.63;;
77866;SDS011;67271;59.120;37.970;2023-04-26T00:44:35;11.02;;;5.65;;
77866;SDS011;67271;59.120;37.970;2023-04-26T00:47:00;13.02;;;6.38;;
77866;SDS011;67271;59.120;37.970;2023-04-26T00:49:28;9.52;;;6.85;;
77866;SDS011;67271;59.120;37.970;2023-04-26T00:51:54;13.35;;;7.18;;
77866;SDS011;67271;59.120;37.970;2023-04-26T00:54:20;11.85;;;7.18;;
77866;SDS011;67271;59.120;37.970;2023-04-26T00:56:46;13.05;;;7.68;;
77866;SDS011;67271;59.120;37.970;2023-04-26T00:59:16;12.93;;;8.27;;
77866;SDS011;67271;59.120;37.970;2023-04-26T01:01:42;15.48;;;7.93;;
77866;SDS011;67271;59.120;37.970;2023-04-26T01:04:08;13.43;;;8.13;;
77866;SDS011;67271;59.120;37.970;2023-04-26T01:06:34;14.43;;;7.95;;
77866;SDS011;67271;59.120;37.970;2023-04-26T01:09:03;16.08;;;8.43;;
77866;SDS011;67271;59.120;37.970;2023-04-26T01:11:35;14.35;;;8.57;;
77866;SDS011;67271;59.120;37.970;2023-04-26T01:14:03;14.52;;;8.82;;
77866;SDS011;67271;59.120;37.970;2023-04-26T01:16:30;13.68;;;8.20;;
77866;SDS011;67271;59.120;37.970;2023-04-26T01:19:05;19.90;;;9.32;;
77866;SDS011;67271;59.120;37.970;2023-04-26T01:21:38;18.73;;;9.52;;
77866;SDS011;67271;59.120;37.970;2023-04-26T01:24:05;18.42;;;9.98;;
77866;SDS011;67271;59.120;37.970;2023-04-26T01:26:31;18.77;;;8.88;;
77866;SDS011;67271;59.120;37.970;2023-04-26T01:28:57;14.70;;;8.82;;
77866;SDS011;67271;59.120;37.970;2023-04-26T01:31:23;14.07;;;8.77;;
77866;SDS011;67271;59.120;37.970;2023-04-26T01:33:50;13.48;;;7.90;;
77866;SDS011;67271;59.120;37.970;2023-04-26T01:36:18;15.02;;;9.02;;
77866;SDS011;67271;59.120;37.970;2023-04-26T01:38:43;13.02;;;8.13;;
77866;SDS011;67271;59.120;37.970;2023-04-26T01:41:09;17.42;;;10.07;;
77866;SDS011;67271;59.120;37.970;2023-04-26T01:43:35;17.70;;;10.43;;
77866;SDS011;67271;59.120;37.970;2023-04-26T01:46:01;14.82;;;7.53;;
77866;SDS011;67271;59.120;37.970;2023-04-26T01:48:28;17.33;;;8.70;;
77866;SDS011;67271;59.120;37.970;2023-04-26T01:50:54;14.25;;;8.05;;
77866;SDS011;67271;59.120;37.970;2023-04-26T01:53:20;17.73;;;8.43;;
77866;SDS011;67271;59.120;37.970;2023-04-26T01:55:46;13.88;;;8.70;;
77866;SDS011;67271;59.120;37.970;2023-04-26T01:58:11;14.18;;;8.65;;
77866;SDS011;67271;59.120;37.970;2023-04-26T02:00:37;16.25;;;8.88;;
77866;SDS011;67271;59.120;37.970;2023-04-26T02:03:03;17.40;;;8.65;;
77866;SDS011;67271;59.120;37.970;2023-04-26T02:05:29;15.77;;;9.05;;
77866;SDS011;67271;59.120;37.970;2023-04-26T02:07:55;25.30;;;9.25;;
77866;SDS011;67271;59.120;37.970;2023-04-26T02:10:21;14.73;;;8.32;;
77866;SDS011;67271;59.120;37.970;2023-04-26T02:12:47;16.95;;;7.95;;
77866;SDS011;67271;59.120;37.970;2023-04-26T02:15:13;13.00;;;8.40;;
77866;SDS011;67271;59.120;37.970;2023-04-26T02:17:39;10.93;;;8.10;;
77866;SDS011;67271;59.120;37.970;2023-04-26T02:20:05;13.25;;;7.78;;
77866;SDS011;67271;59.120;37.970;2023-04-26T02:22:34;12.95;;;7.70;;
77866;SDS011;67271;59.120;37.970;2023-04-26T02:25:00;15.00;;;7.88;;
77866;SDS011;67271;59.120;37.970;2023-04-26T02:27:29;19.35;;;8.95;;
77866;SDS011;67271;59.120;37.970;2023-04-26T02:29:55;13.27;;;8.45;;
77866;SDS011;67271;59.120;37.970;2023-04-26T02:32:21;15.32;;;8.07;;
77866;SDS011;67271;59.120;37.970;2023-04-26T02:34:47;12.73;;;8.30;;
77866;SDS011;67271;59.120;37.970;2023-04-26T02:37:13;12.98;;;9.02;;
77866;SDS011;67271;59.120;37.970;2023-04-26T02:39:39;10.43;;;7.05;;
77866;SDS011;67271;59.120;37.970;2023-04-26T02:42:09;17.55;;;7.97;;
77866;SDS011;67271;59.120;37.970;2023-04-26T02:44:35;17.83;;;9.70;;
77866;SDS011;67271;59.120;37.970;2023-04-26T02:47:02;16.40;;;9.30;;
77866;SDS011;67271;59.120;37.970;2023-04-26T02:49:29;15.68;;;8.65;;
77866;SDS011;67271;59.120;37.970;2023-04-26T02:51:55;12.88;;;9.07;;
77866;SDS011;67271;59.120;37.970;2023-04-26T02:54:21;17.23;;;8.77;;
77866;SDS011;67271;59.120;37.970;2023-04-26T02:56:47;13.25;;;8.55;;
77866;SDS011;67271;59.120;37.970;2023-04-26T02:59:13;17.52;;;8.55;;
77866;SDS011;67271;59.120;37.970;2023-04-26T03:01:39;16.60;;;7.95;;
77866;SDS011;67271;59.120;37.970;2023-04-26T03:04:05;14.35;;;7.18;;
77866;SDS011;67271;59.120;37.970;2023-04-26T03:06:33;10.50;;;6.30;;
77866;SDS011;67271;59.120;37.970;2023-04-26T03:08:59;11.45;;;7.65;;
77866;SDS011;67271;59.120;37.970;2023-04-26T03:11:25;17.52;;;7.35;;
77866;SDS011;67271;59.120;37.970;2023-04-26T03:13:51;11.82;;;7.20;;
77866;SDS011;67271;59.120;37.970;2023-04-26T03:16:18;9.50;;;6.68;;
77866;SDS011;67271;59.120;37.970;2023-04-26T03:18:47;14.52;;;7.32;;
77866;SDS011;67271;59.120;37.970;2023-04-26T03:21:14;12.25;;;7.10;;
77866;SDS011;67271;59.120;37.970;2023-04-26T03:23:40;12.93;;;6.55;;
77866;SDS011;67271;59.120;37.970;2023-04-26T03:26:07;11.27;;;6.65;;
77866;SDS011;67271;59.120;37.970;2023-04-26T03:28:33;9.95;;;6.25;;
77866;SDS011;67271;59.120;37.970;2023-04-26T03:30:58;11.65;;;7.07;;
77866;SDS011;67271;59.120;37.970;2023-04-26T03:33:26;14.52;;;7.18;;
77866;SDS011;67271;59.120;37.970;2023-04-26T03:35:52;10.25;;;6.05;;
77866;SDS011;67271;59.120;37.970;2023-04-26T03:38:18;15.13;;;6.63;;
77866;SDS011;67271;59.120;37.970;2023-04-26T03:40:44;11.77;;;6.90;;
77866;SDS011;67271;59.120;37.970;2023-04-26T03:43:10;10.75;;;7.43;;
77866;SDS011;67271;59.120;37.970;2023-04-26T03:45:37;18.15;;;8.75;;
77866;SDS011;67271;59.120;37.970;2023-04-26T03:48:03;17.05;;;6.88;;
77866;SDS011;67271;59.120;37.970;2023-04-26T03:50:29;19.10;;;7.28;;
77866;SDS011;67271;59.120;37.970;2023-04-26T03:52:55;13.10;;;7.00;;
77866;SDS011;67271;59.120;37.970;2023-04-26T03:55:21;13.23;;;6.70;;
77866;SDS011;67271;59.120;37.970;2023-04-26T03:57:47;11.25;;;6.60;;
77866;SDS011;67271;59.120;37.970;2023-04-26T04:00:13;11.27;;;6.22;;
77866;SDS011;67271;59.120;37.970;2023-04-26T04:02:43;15.13;;;6.07;;
77866;SDS011;67271;59.120;37.970;2023-04-26T04:05:14;13.20;;;6.75;;
77866;SDS011;67271;59.120;37.970;2023-04-26T04:07:40;13.73;;;7.07;;
77866;SDS011;67271;59.120;37.970;2023-04-26T04:10:07;10.32;;;6.25;;
77866;SDS011;67271;59.120;37.970;2023-04-26T04:12:35;9.35;;;5.85;;
77866;SDS011;67271;59.120;37.970;2023-04-26T04:15:02;12.02;;;7.05;;
77866;SDS011;67271;59.120;37.970;2023-04-26T04:17:29;14.18;;;7.50;;
77866;SDS011;67271;59.120;37.970;2023-04-26T04:19:55;10.32;;;6.57;;
77866;SDS011;67271;59.120;37.970;2023-04-26T04:22:21;25.58;;;7.20;;
77866;SDS011;67271;59.120;37.970;2023-04-26T04:24:48;12.05;;;6.43;;
77866;SDS011;67271;59.120;37.970;2023-04-26T04:27:14;10.70;;;6.45;;
77866;SDS011;67271;59.120;37.970;2023-04-26T04:29:43;16.17;;;6.00;;
77866;SDS011;67271;59.120;37.970;2023-04-26T04:32:09;9.70;;;5.97;;
77866;SDS011;67271;59.120;37.970;2023-04-26T04:34:36;6.32;;;4.68;;
77866;SDS011;67271;59.120;37.970;2023-04-26T04:37:02;13.50;;;6.20;;
77866;SDS011;67271;59.120;37.970;2023-04-26T04:39:29;11.85;;;7.13;;
77866;SDS011;67271;59.120;37.970;2023-04-26T04:41:55;11.20;;;6.38;;
77866;SDS011;67271;59.120;37.970;2023-04-26T04:44:23;16.88;;;7.30;;
77866;SDS011;67271;59.120;37.970;2023-04-26T04:46:51;10.75;;;5.97;;
77866;SDS011;67271;59.120;37.970;2023-04-26T04:49:18;15.50;;;8.48;;
77866;SDS011;67271;59.120;37.970;2023-04-26T04:51:44;12.38;;;6.80;;
77866;SDS011;67271;59.120;37.970;2023-04-26T04:54:14;19.60;;;6.32;;
77866;SDS011;67271;59.120;37.970;2023-04-26T04:56:43;11.80;;;7.00;;
77866;SDS011;67271;59.120;37.970;2023-04-26T04:59:11;13.25;;;6.80;;
77866;SDS011;67271;59.120;37.970;2023-04-26T05:01:38;13.27;;;7.95;;
77866;SDS011;67271;59.120;37.970;2023-04-26T05:04:07;14.85;;;6.38;;
77866;SDS011;67271;59.120;37.970;2023-04-26T05:06:33;9.05;;;6.28;;
77866;SDS011;67271;59.120;37.970;2023-04-26T05:09:00;12.95;;;6.43;;
77866;SDS011;67271;59.120;37.970;2023-04-26T05:11:27;10.75;;;5.22;;
77866;SDS011;67271;59.120;37.970;2023-04-26T05:14:22;7.88;;;5.72;;
77866;SDS011;67271;59.120;37.970;2023-04-26T05:16:48;13.32;;;6.93;;
77866;SDS011;67271;59.120;37.970;2023-04-26T05:19:14;13.15;;;6.00;;
77866;SDS011;67271;59.120;37.970;2023-04-26T05:21:40;12.35;;;6.05;;
77866;SDS011;67271;59.120;37.970;2023-04-26T05:24:06;9.48;;;6.13;;
77866;SDS011;67271;59.120;37.970;2023-04-26T05:26:33;9.27;;;6.43;;
77866;SDS011;67271;59.120;37.970;2023-04-26T05:29:18;16.23;;;6.72;;
77866;SDS011;67271;59.120;37.970;2023-04-26T05:31:59;10.38;;;7.63;;
77866;SDS011;67271;59.120;37.970;2023-04-26T05:34:43;11.32;;;5.68;;
77866;SDS011;67271;59.120;37.970;2023-04-26T05:37:14;14.60;;;6.20;;
77866;SDS011;67271;59.120;37.970;2023-04-26T05:39:41;10.57;;;7.13;;
77866;SDS011;67271;59.120;37.970;2023-04-26T05:42:09;11.13;;;5.40;;
77866;SDS011;67271;59.120;37.970;2023-04-26T05:44:35;9.80;;;5.90;;
77866;SDS011;67271;59.120;37.970;2023-04-26T05:47:01;10.25;;;6.30;;
77866;SDS011;67271;59.120;37.970;2023-04-26T05:49:27;8.52;;;5.88;;
77866;SDS011;67271;59.120;37.970;2023-04-26T05:51:53;12.55;;;5.28;;
77866;SDS011;67271;59.120;37.970;2023-04-26T05:54:19;9.98;;;6.03;;
77866;SDS011;67271;59.120;37.970;2023-04-26T05:56:45;11.77;;;6.57;;
77866;SDS011;67271;59.120;37.970;2023-04-26T05:59:11;11.73;;;6.10;;
77866;SDS011;67271;59.120;37.970;2023-04-26T06:01:38;11.27;;;5.93;;
77866;SDS011;67271;59.120;37.970;2023-04-26T06:04:04;10.68;;;6.10;;
77866;SDS011;67271;59.120;37.970;2023-04-26T06:06:38;7.55;;;4.72;;
77866;SDS011;67271;59.120;37.970;2023-04-26T06:09:04;8.48;;;5.45;;
77866;SDS011;67271;59.120;37.970;2023-04-26T06:11:30;11.93;;;6.68;;
77866;SDS011;67271;59.120;37.970;2023-04-26T06:13:56;15.25;;;5.95;;
77866;SDS011;67271;59.120;37.970;2023-04-26T06:16:23;12.15;;;6.47;;
77866;SDS011;67271;59.120;37.970;2023-04-26T06:18:49;15.48;;;6.53;;
77866;SDS011;67271;59.120;37.970;2023-04-26T06:21:15;16.52;;;6.47;;
77866;SDS011;67271;59.120;37.970;2023-04-26T06:23:41;9.32;;;5.65;;
77866;SDS011;67271;59.120;37.970;2023-04-26T06:26:07;11.10;;;5.13;;
77866;SDS011;67271;59.120;37.970;2023-04-26T06:28:33;11.88;;;5.57;;
77866;SDS011;67271;59.120;37.970;2023-04-26T06:30:59;9.80;;;5.68;;
77866;SDS011;67271;59.120;37.970;2023-04-26T06:33:26;9.77;;;6.43;;
77866;SDS011;67271;59.120;37.970;2023-04-26T06:35:52;13.70;;;5.40;;
77866;SDS011;67271;59.120;37.970;2023-04-26T06:38:18;8.77;;;5.70;;
77866;SDS011;67271;59.120;37.970;2023-04-26T06:40:43;13.60;;;5.90;;
77866;SDS011;67271;59.120;37.970;2023-04-26T06:43:09;8.90;;;6.68;;
77866;SDS011;67271;59.120;37.970;2023-04-26T06:45:35;12.50;;;5.82;;
77866;SDS011;67271;59.120;37.970;2023-04-26T06:48:01;11.60;;;6.30;;
77866;SDS011;67271;59.120;37.970;2023-04-26T06:50:30;8.38;;;5.45;;
77866;SDS011;67271;59.120;37.970;2023-04-26T06:52:55;6.85;;;5.30;;
77866;SDS011;67271;59.120;37.970;2023-04-26T06:55:21;9.80;;;5.50;;
77866;SDS011;67271;59.120;37.970;2023-04-26T06:57:48;7.35;;;5.15;;
77866;SDS011;67271;59.120;37.970;2023-04-26T07:00:14;9.35;;;5.40;;
77866;SDS011;67271;59.120;37.970;2023-04-26T07:02:40;13.00;;;5.60;;
77866;SDS011;67271;59.120;37.970;2023-04-26T07:05:06;10.63;;;5.10;;
77866;SDS011;67271;59.120;37.970;2023-04-26T07:07:33;9.82;;;5.13;;
77866;SDS011;67271;59.120;37.970;2023-04-26T07:09:58;8.15;;;4.70;;
77866;SDS011;67271;59.120;37.970;2023-04-26T07:12:24;13.70;;;5.35;;
77866;SDS011;67271;59.120;37.970;2023-04-26T07:14:50;9.15;;;5.43;;
77866;SDS011;67271;59.120;37.970;2023-04-26T07:17:16;8.02;;;4.85;;
77866;SDS011;67271;59.120;37.970;2023-04-26T07:19:42;7.93;;;5.10;;
77866;SDS011;67271;59.120;37.970;2023-04-26T07:22:08;7.75;;;5.22;;
77866;SDS011;67271;59.120;37.970;2023-04-26T07:24:34;7.78;;;3.95;;
77866;SDS011;67271;59.120;37.970;2023-04-26T07:27:00;7.70;;;5.05;;
77866;SDS011;67271;59.120;37.970;2023-04-26T07:29:26;7.68;;;5.75;;
77866;SDS011;67271;59.120;37.970;2023-04-26T07:31:52;8.50;;;4.95;;
77866;SDS011;67271;59.120;37.970;2023-04-26T07:34:18;11.88;;;4.93;;
77866;SDS011;67271;59.120;37.970;2023-04-26T07:36:44;8.63;;;5.15;;
77866;SDS011;67271;59.120;37.970;2023-04-26T07:39:10;11.95;;;6.22;;
77866;SDS011;67271;59.120;37.970;2023-04-26T07:41:36;13.07;;;5.38;;
77866;SDS011;67271;59.120;37.970;2023-04-26T07:44:02;10.73;;;4.43;;
77866;SDS011;67271;59.120;37.970;2023-04-26T07:46:28;8.20;;;4.18;;
77866;SDS011;67271;59.120;37.970;2023-04-26T07:48:54;7.50;;;5.32;;
77866;SDS011;67271;59.120;37.970;2023-04-26T07:51:20;8.00;;;4.90;;
77866;SDS011;67271;59.120;37.970;2023-04-26T07:53:46;9.50;;;4.60;;
77866;SDS011;67271;59.120;37.970;2023-04-26T07:56:12;7.30;;;4.22;;
77866;SDS011;67271;59.120;37.970;2023-04-26T07:58:38;7.20;;;4.68;;
77866;SDS011;67271;59.120;37.970;2023-04-26T08:01:04;9.18;;;5.40;;
77866;SDS011;67271;59.120;37.970;2023-04-26T08:03:30;9.75;;;5.28;;
77866;SDS011;67271;59.120;37.970;2023-04-26T08:05:56;9.48;;;5.55;;
77866;SDS011;67271;59.120;37.970;2023-04-26T08:08:25;7.45;;;5.20;;
77866;SDS011;67271;59.120;37.970;2023-04-26T08:10:52;9.77;;;5.25;;
77866;SDS011;67271;59.120;37.970;2023-04-26T08:13:20;7.78;;;5.43;;
77866;SDS011;67271;59.120;37.970;2023-04-26T08:15:46;11.05;;;5.28;;
77866;SDS011;67271;59.120;37.970;2023-04-26T08:18:12;10.30;;;5.10;;
77866;SDS011;67271;59.120;37.970;2023-04-26T08:20:38;5.72;;;4.13;;
77866;SDS011;67271;59.120;37.970;2023-04-26T08:23:04;10.55;;;4.78;;
77866;SDS011;67271;59.120;37.970;2023-04-26T08:25:30;9.40;;;3.88;;
77866;SDS011;67271;59.120;37.970;2023-04-26T08:27:59;9.18;;;5.20;;
77866;SDS011;67271;59.120;37.970;2023-04-26T08:30:25;7.68;;;4.63;;
77866;SDS011;67271;59.120;37.970;2023-04-26T08:32:51;7.65;;;4.65;;
77866;SDS011;67271;59.120;37.970;2023-04-26T08:35:17;8.43;;;5.30;;
77866;SDS011;67271;59.120;37.970;2023-04-26T08:37:42;8.32;;;4.72;;
77866;SDS011;67271;59.120;37.970;2023-04-26T08:40:09;9.48;;;4.60;;
77866;SDS011;67271;59.120;37.970;2023-04-26T08:42:39;10.80;;;4.15;;
77866;SDS011;67271;59.120;37.970;2023-04-26T08:45:08;7.70;;;4.40;;
77866;SDS011;67271;59.120;37.970;2023-04-26T08:50:09;8.15;;;4.50;;
77866;SDS011;67271;59.120;37.970;2023-04-26T08:52:36;7.07;;;4.07;;
77866;SDS011;67271;59.120;37.970;2023-04-26T08:55:05;7.80;;;4.85;;
77866;SDS011;67271;59.120;37.970;2023-04-26T08:57:34;7.93;;;4.03;;
77866;SDS011;67271;59.120;37.970;2023-04-26T09:00:01;5.60;;;4.05;;
77866;SDS011;67271;59.120;37.970;2023-04-26T09:02:36;7.07;;;3.95;;
77866;SDS011;67271;59.120;37.970;2023-04-26T09:05:07;7.18;;;4.38;;
77866;SDS011;67271;59.120;37.970;2023-04-26T09:07:39;5.20;;;3.42;;
77866;SDS011;67271;59.120;37.970;2023-04-26T09:10:09;5.35;;;3.63;;
77866;SDS011;67271;59.120;37.970;2023-04-26T09:12:36;6.70;;;3.63;;
77866;SDS011;67271;59.120;37.970;2023-04-26T09:15:04;6.97;;;4.13;;
77866;SDS011;67271;59.120;37.970;2023-04-26T09:21:00;4.13;;;2.47;;
77866;SDS011;67271;59.120;37.970;2023-04-26T09:23:08;3.75;;;2.58;;
77866;SDS011;67271;59.120;37.970;2023-04-26T09:25:34;3.83;;;2.40;;
77866;SDS011;67271;59.120;37.970;2023-04-26T09:28:01;5.63;;;3.42;;
77866;SDS011;67271;59.120;37.970;2023-04-26T09:30:35;3.45;;;2.50;;
77866;SDS011;67271;59.120;37.970;2023-04-26T09:33:04;3.95;;;2.55;;
77866;SDS011;67271;59.120;37.970;2023-04-26T09:38:08;3.67;;;2.60;;
77866;SDS011;67271;59.120;37.970;2023-04-26T09:40:44;3.78;;;2.53;;
77866;SDS011;67271;59.120;37.970;2023-04-26T09:43:12;3.47;;;2.40;;
77866;SDS011;67271;59.120;37.970;2023-04-26T09:45:53;5.43;;;2.30;;
77866;SDS011;67271;59.120;37.970;2023-04-26T09:48:21;3.88;;;2.28;;
77866;SDS011;67271;59.120;37.970;2023-04-26T09:51:11;4.05;;;2.58;;
77866;SDS011;67271;59.120;37.970;2023-04-26T09:53:45;3.45;;;2.42;;
77866;SDS011;67271;59.120;37.970;2023-04-26T09:56:18;4.88;;;2.40;;
77866;SDS011;67271;59.120;37.970;2023-04-26T10:01:10;5.82;;;2.80;;
77866;SDS011;67271;59.120;37.970;2023-04-26T10:03:39;6.03;;;3.13;;
77866;SDS011;67271;59.120;37.970;2023-04-26T10:06:07;5.32;;;2.90;;
77866;SDS011;67271;59.120;37.970;2023-04-26T10:08:33;4.10;;;3.00;;
77866;SDS011;67271;59.120;37.970;2023-04-26T10:11:03;4.22;;;2.67;;
77866;SDS011;67271;59.120;37.970;2023-04-26T10:13:31;4.13;;;2.80;;
77866;SDS011;67271;59.120;37.970;2023-04-26T10:15:59;3.22;;;2.47;;
77866;SDS011;67271;59.120;37.970;2023-04-26T10:18:26;7.85;;;2.60;;
77866;SDS011;67271;59.120;37.970;2023-04-26T10:20:53;4.70;;;2.70;;
77866;SDS011;67271;59.120;37.970;2023-04-26T10:23:23;4.35;;;2.80;;
77866;SDS011;67271;59.120;37.970;2023-04-26T10:25:50;6.53;;;2.55;;
77866;SDS011;67271;59.120;37.970;2023-04-26T10:31:11;3.28;;;2.70;;
77866;SDS011;67271;59.120;37.970;2023-04-26T10:33:37;3.85;;;2.75;;
77866;SDS011;67271;59.120;37.970;2023-04-26T10:36:04;5.57;;;2.70;;
77866;SDS011;67271;59.120;37.970;2023-04-26T10:38:41;5.60;;;3.15;;
77866;SDS011;67271;59.120;37.970;2023-04-26T10:41:49;3.72;;;2.70;;
77866;SDS011;67271;59.120;37.970;2023-04-26T10:47:06;4.00;;;2.60;;
77866;SDS011;67271;59.120;37.970;2023-04-26T10:49:45;3.35;;;2.38;;
77866;SDS011;67271;59.120;37.970;2023-04-26T10:52:21;2.30;;;1.90;;
77866;SDS011;67271;59.120;37.970;2023-04-26T10:54:52;3.60;;;2.40;;
77866;SDS011;67271;59.120;37.970;2023-04-26T10:57:20;3.25;;;2.15;;
77866;SDS011;67271;59.120;37.970;2023-04-26T11:02:55;3.10;;;2.15;;
77866;SDS011;67271;59.120;37.970;2023-04-26T11:10:48;1.63;;;1.45;;
77866;SDS011;67271;59.120;37.970;2023-04-26T11:13:20;3.53;;;1.73;;
77866;SDS011;67271;59.120;37.970;2023-04-26T11:15:50;2.25;;;1.55;;
77866;SDS011;67271;59.120;37.970;2023-04-26T11:18:18;2.10;;;1.70;;
77866;SDS011;67271;59.120;37.970;2023-04-26T11:20:48;2.45;;;1.98;;
77866;SDS011;67271;59.120;37.970;2023-04-26T11:23:13;2.70;;;2.00;;
77866;SDS011;67271;59.120;37.970;2023-04-26T11:25:40;3.25;;;2.10;;
77866;SDS011;67271;59.120;37.970;2023-04-26T11:28:06;2.08;;;1.70;;
77866;SDS011;67271;59.120;37.970;2023-04-26T11:30:32;4.28;;;2.30;;
77866;SDS011;67271;59.120;37.970;2023-04-26T11:33:01;2.70;;;1.92;;
77866;SDS011;67271;59.120;37.970;2023-04-26T11:35:37;3.17;;;2.40;;
77866;SDS011;67271;59.120;37.970;2023-04-26T11:38:04;4.28;;;2.67;;
77866;SDS011;67271;59.120;37.970;2023-04-26T11:40:31;3.25;;;2.10;;
77866;SDS011;67271;59.120;37.970;2023-04-26T11:42:58;4.05;;;2.78;;
77866;SDS011;67271;59.120;37.970;2023-04-26T11:45:25;4.53;;;2.83;;
77866;SDS011;67271;59.120;37.970;2023-04-26T11:47:51;5.22;;;2.50;;
77866;SDS011;67271;59.120;37.970;2023-04-26T11:50:18;4.88;;;2.67;;
77866;SDS011;67271;59.120;37.970;2023-04-26T11:52:45;3.10;;;2.42;;
77866;SDS011;67271;59.120;37.970;2023-04-26T11:55:11;2.53;;;2.05;;
77866;SDS011;67271;59.120;37.970;2023-04-26T11:57:37;3.13;;;1.98;;
77866;SDS011;67271;59.120;37.970;2023-04-26T12:00:06;2.67;;;2.05;;
77866;SDS011;67271;59.120;37.970;2023-04-26T12:02:42;4.03;;;2.60;;
77866;SDS011;67271;59.120;37.970;2023-04-26T12:05:22;5.00;;;3.20;;
77866;SDS011;67271;59.120;37.970;2023-04-26T12:07:55;4.47;;;3.05;;
77866;SDS011;67271;59.120;37.970;2023-04-26T12:12:51;4.55;;;2.80;;
77866;SDS011;67271;59.120;37.970;2023-04-26T12:15:22;5.00;;;3.13;;
77866;SDS011;67271;59.120;37.970;2023-04-26T12:18:00;3.80;;;2.40;;
77866;SDS011;67271;59.120;37.970;2023-04-26T12:20:36;3.97;;;2.63;;
77866;SDS011;67271;59.120;37.970;2023-04-26T12:23:04;4.75;;;2.70;;
77866;SDS011;67271;59.120;37.970;2023-04-26T12:25:32;4.00;;;2.60;;
77866;SDS011;67271;59.120;37.970;2023-04-26T12:27:59;3.97;;;2.97;;
77866;SDS011;67271;59.120;37.970;2023-04-26T12:30:26;5.32;;;3.05;;
77866;SDS011;67271;59.120;37.970;2023-04-26T12:33:02;3.05;;;2.60;;
77866;SDS011;67271;59.120;37.970;2023-04-26T12:35:29;5.72;;;2.60;;
77866;SDS011;67271;59.120;37.970;2023-04-26T12:37:55;3.00;;;2.30;;
77866;SDS011;67271;59.120;37.970;2023-04-26T12:40:24;2.90;;;2.20;;
77866;SDS011;67271;59.120;37.970;2023-04-26T12:42:51;5.60;;;3.03;;
77866;SDS011;67271;59.120;37.970;2023-04-26T12:45:20;4.18;;;2.92;;
77866;SDS011;67271;59.120;37.970;2023-04-26T12:47:52;5.18;;;2.97;;
77866;SDS011;67271;59.120;37.970;2023-04-26T12:50:18;5.22;;;2.50;;
77866;SDS011;67271;59.120;37.970;2023-04-26T12:52:45;3.50;;;2.30;;
77866;SDS011;67271;59.120;37.970;2023-04-26T12:55:11;4.25;;;2.80;;
77866;SDS011;67271;59.120;37.970;2023-04-26T12:57:40;3.75;;;2.65;;
77866;SDS011;67271;59.120;37.970;2023-04-26T13:00:08;3.40;;;2.60;;
77866;SDS011;67271;59.120;37.970;2023-04-26T13:02:35;4.13;;;3.00;;
77866;SDS011;67271;59.120;37.970;2023-04-26T13:05:02;5.53;;;2.63;;
77866;SDS011;67271;59.120;37.970;2023-04-26T13:07:30;7.03;;;3.10;;
77866;SDS011;67271;59.120;37.970;2023-04-26T13:09:59;5.18;;;2.90;;
77866;SDS011;67271;59.120;37.970;2023-04-26T13:12:26;2.58;;;1.63;;
77866;SDS011;67271;59.120;37.970;2023-04-26T13:14:53;3.67;;;2.20;;
77866;SDS011;67271;59.120;37.970;2023-04-26T13:17:20;3.50;;;2.40;;
77866;SDS011;67271;59.120;37.970;2023-04-26T13:19:47;2.45;;;1.60;;
77866;SDS011;67271;59.120;37.970;2023-04-26T13:22:13;3.55;;;1.95;;
77866;SDS011;67271;59.120;37.970;2023-04-26T13:24:40;3.05;;;2.10;;
77866;SDS011;67271;59.120;37.970;2023-04-26T13:27:06;2.83;;;2.20;;
77866;SDS011;67271;59.120;37.970;2023-04-26T13:29:32;4.43;;;2.30;;
77866;SDS011;67271;59.120;37.970;2023-04-26T13:31:59;3.40;;;2.22;;
77866;SDS011;67271;59.120;37.970;2023-04-26T13:34:25;4.53;;;2.88;;
77866;SDS011;67271;59.120;37.970;2023-04-26T13:36:51;3.70;;;2.25;;
77866;SDS011;67271;59.120;37.970;2023-04-26T13:39:18;2.50;;;1.98;;
77866;SDS011;67271;59.120;37.970;2023-04-26T13:41:44;4.60;;;2.15;;
77866;SDS011;67271;59.120;37.970;2023-04-26T13:44:10;3.03;;;2.40;;
77866;SDS011;67271;59.120;37.970;2023-04-26T13:46:36;4.50;;;2.03;;
77866;SDS011;67271;59.120;37.970;2023-04-26T13:49:01;2.08;;;1.63;;
77866;SDS011;67271;59.120;37.970;2023-04-26T13:51:27;2.00;;;1.55;;
77866;SDS011;67271;59.120;37.970;2023-04-26T13:53:55;2.10;;;1.85;;
77866;SDS011;67271;59.120;37.970;2023-04-26T13:56:21;7.88;;;2.97;;
77866;SDS011;67271;59.120;37.970;2023-04-26T13:58:47;3.92;;;2.45;;
77866;SDS011;67271;59.120;37.970;2023-04-26T14:01:13;5.40;;;4.18;;
77866;SDS011;67271;59.120;37.970;2023-04-26T14:03:39;5.10;;;2.13;;
77866;SDS011;67271;59.120;37.970;2023-04-26T14:06:06;4.78;;;2.42;;
77866;SDS011;67271;59.120;37.970;2023-04-26T14:08:32;4.50;;;2.28;;
77866;SDS011;67271;59.120;37.970;2023-04-26T14:10:58;2.15;;;1.90;;
77866;SDS011;67271;59.120;37.970;2023-04-26T14:13:24;2.97;;;2.00;;
77866;SDS011;67271;59.120;37.970;2023-04-26T14:15:50;2.72;;;1.70;;
77866;SDS011;67271;59.120;37.970;2023-04-26T14:18:15;3.92;;;2.38;;
77866;SDS011;67271;59.120;37.970;2023-04-26T14:20:41;3.47;;;2.38;;
77866;SDS011;67271;59.120;37.970;2023-04-26T14:23:07;2.47;;;2.00;;
77866;SDS011;67271;59.120;37.970;2023-04-26T14:25:33;2.95;;;1.77;;
77866;SDS011;67271;59.120;37.970;2023-04-26T14:28:00;2.20;;;1.73;;
77866;SDS011;67271;59.120;37.970;2023-04-26T14:30:26;1.90;;;1.75;;
77866;SDS011;67271;59.120;37.970;2023-04-26T14:32:53;2.50;;;1.80;;
77866;SDS011;67271;59.120;37.970;2023-04-26T14:35:18;9.82;;;4.63;;
77866;SDS011;67271;59.120;37.970;2023-04-26T14:37:45;3.85;;;2.08;;
77866;SDS011;67271;59.120;37.970;2023-04-26T14:40:11;3.60;;;2.50;;
77866;SDS011;67271;59.120;37.970;2023-04-26T14:42:38;3.17;;;2.47;;
77866;SDS011;67271;59.120;37.970;2023-04-26T14:45:10;2.20;;;1.63;;
77866;SDS011;67271;59.120;37.970;2023-04-26T14:47:37;3.88;;;2.35;;
77866;SDS011;67271;59.120;37.970;2023-04-26T14:50:03;3.05;;;1.90;;
77866;SDS011;67271;59.120;37.970;2023-04-26T14:52:29;2.20;;;1.70;;
77866;SDS011;67271;59.120;37.970;2023-04-26T14:55:00;1.75;;;1.55;;
77866;SDS011;67271;59.120;37.970;2023-04-26T14:57:27;3.20;;;1.85;;
77866;SDS011;67271;59.120;37.970;2023-04-26T14:59:53;3.55;;;1.60;;